sensor_id;sensor_type;location;lat;lon;timestamp;P1;durP1;ratioP1;P2;durP2;ratioP2
32705;SDS011;19094;50.972;3.538;2023-11-22T00:00:11;23.60;;;14.90;;
32705;SDS011;19094;50.972;3.538;2023-11-22T00:02:38;26.90;;;14.50;;
32705;SDS011;19094;50.972;3.538;2023-11-22T00:05:04;26.67;;;15.45;;
32705;SDS011;19094;50.972;3.538;2023-11-22T00:07:31;28.85;;;15.52;;
32705;SDS011;19094;50.972;3.538;2023-11-22T00:09:57;28.08;;;16.38;;
32705;SDS011;19094;50.972;3.538;2023-11-22T00:12:23;27.60;;;15.50;;
32705;SDS011;19094;50.972;3.538;2023-11-22T00:14:50;29.50;;;16.05;;
32705;SDS011;19094;50.972;3.538;2023-11-22T00:17:16;28.25;;;15.38;;
32705;SDS011;19094;50.972;3.538;2023-11-22T00:19:43;24.90;;;15.52;;
32705;SDS011;19094;50.972;3.538;2023-11-22T00:22:09;22.50;;;14.65;;
32705;SDS011;19094;50.972;3.538;2023-11-22T00:24:39;23.55;;;15.07;;
32705;SDS011;19094;50.972;3.538;2023-11-22T00:27:06;24.90;;;14.70;;
32705;SDS011;19094;50.972;3.538;2023-11-22T00:29:32;25.55;;;15.40;;
32705;SDS011;19094;50.972;3.538;2023-11-22T00:31:58;29.10;;;15.43;;
32705;SDS011;19094;50.972;3.538;2023-11-22T00:34:25;29.30;;;15.48;;
32705;SDS011;19094;50.972;3.538;2023-11-22T00:36:51;25.77;;;15.52;;
32705;SDS011;19094;50.972;3.538;2023-11-22T00:39:17;26.10;;;16.17;;
32705;SDS011;19094;50.972;3.538;2023-11-22T00:41:43;26.75;;;15.27;;
32705;SDS011;19094;50.972;3.538;2023-11-22T00:44:09;28.83;;;16.73;;
32705;SDS011;19094;50.972;3.538;2023-11-22T00:46:36;25.92;;;14.95;;
32705;SDS011;19094;50.972;3.538;2023-11-22T00:49:04;32.70;;;16.20;;
32705;SDS011;19094;50.972;3.538;2023-11-22T00:51:31;24.27;;;15.15;;
32705;SDS011;19094;50.972;3.538;2023-11-22T00:54:00;23.63;;;15.18;;
32705;SDS011;19094;50.972;3.538;2023-11-22T00:56:26;25.13;;;14.90;;
32705;SDS011;19094;50.972;3.538;2023-11-22T00:58:52;27.88;;;16.10;;
32705;SDS011;19094;50.972;3.538;2023-11-22T01:01:21;34.17;;;15.73;;
32705;SDS011;19094;50.972;3.538;2023-11-22T01:03:47;28.80;;;16.13;;
32705;SDS011;19094;50.972;3.538;2023-11-22T01:06:13;26.10;;;15.70;;
32705;SDS011;19094;50.972;3.538;2023-11-22T01:08:39;27.52;;;16.10;;
32705;SDS011;19094;50.972;3.538;2023-11-22T01:11:05;25.95;;;15.52;;
32705;SDS011;19094;50.972;3.538;2023-11-22T01:13:31;28.05;;;15.07;;
32705;SDS011;19094;50.972;3.538;2023-11-22T01:15:57;31.58;;;16.60;;
32705;SDS011;19094;50.972;3.538;2023-11-22T01:18:23;27.52;;;16.40;;
32705;SDS011;19094;50.972;3.538;2023-11-22T01:20:49;33.55;;;15.20;;
32705;SDS011;19094;50.972;3.538;2023-11-22T01:23:15;27.45;;;15.30;;
32705;SDS011;19094;50.972;3.538;2023-11-22T01:25:41;36.08;;;16.27;;
32705;SDS011;19094;50.972;3.538;2023-11-22T01:28:06;27.45;;;16.05;;
32705;SDS011;19094;50.972;3.538;2023-11-22T01:30:32;24.00;;;15.27;;
32705;SDS011;19094;50.972;3.538;2023-11-22T01:32:58;26.33;;;15.52;;
32705;SDS011;19094;50.972;3.538;2023-11-22T01:35:24;30.30;;;16.40;;
32705;SDS011;19094;50.972;3.538;2023-11-22T01:37:50;26.33;;;15.90;;
32705;SDS011;19094;50.972;3.538;2023-11-22T01:40:16;25.08;;;14.90;;
32705;SDS011;19094;50.972;3.538;2023-11-22T01:42:44;28.38;;;15.93;;
32705;SDS011;19094;50.972;3.538;2023-11-22T01:45:11;28.52;;;15.50;;
32705;SDS011;19094;50.972;3.538;2023-11-22T01:47:37;29.80;;;15.73;;
32705;SDS011;19094;50.972;3.538;2023-11-22T01:50:06;29.58;;;16.58;;
32705;SDS011;19094;50.972;3.538;2023-11-22T01:52:33;28.33;;;16.00;;
32705;SDS011;19094;50.972;3.538;2023-11-22T01:55:00;31.20;;;15.98;;
32705;SDS011;19094;50.972;3.538;2023-11-22T01:57:30;29.98;;;15.48;;
32705;SDS011;19094;50.972;3.538;2023-11-22T01:59:59;29.33;;;15.38;;
32705;SDS011;19094;50.972;3.538;2023-11-22T02:02:27;31.77;;;16.38;;
32705;SDS011;19094;50.972;3.538;2023-11-22T02:04:52;28.83;;;15.75;;
32705;SDS011;19094;50.972;3.538;2023-11-22T02:07:18;24.50;;;14.90;;
32705;SDS011;19094;50.972;3.538;2023-11-22T02:09:44;29.50;;;16.20;;
32705;SDS011;19094;50.972;3.538;2023-11-22T02:12:10;31.20;;;16.90;;
32705;SDS011;19094;50.972;3.538;2023-11-22T02:14:37;24.65;;;15.05;;
32705;SDS011;19094;50.972;3.538;2023-11-22T02:17:03;31.67;;;16.80;;
32705;SDS011;19094;50.972;3.538;2023-11-22T02:19:29;26.75;;;15.52;;
32705;SDS011;19094;50.972;3.538;2023-11-22T02:21:58;29.13;;;16.42;;
32705;SDS011;19094;50.972;3.538;2023-11-22T02:24:24;29.10;;;17.52;;
32705;SDS011;19094;50.972;3.538;2023-11-22T02:26:49;26.98;;;16.33;;
32705;SDS011;19094;50.972;3.538;2023-11-22T02:29:16;26.17;;;15.68;;
32705;SDS011;19094;50.972;3.538;2023-11-22T02:31:43;31.48;;;17.15;;
32705;SDS011;19094;50.972;3.538;2023-11-22T02:34:09;28.92;;;16.80;;
32705;SDS011;19094;50.972;3.538;2023-11-22T02:36:34;29.85;;;16.85;;
32705;SDS011;19094;50.972;3.538;2023-11-22T02:39:00;31.45;;;17.52;;
32705;SDS011;19094;50.972;3.538;2023-11-22T02:41:29;31.38;;;17.55;;
32705;SDS011;19094;50.972;3.538;2023-11-22T02:43:55;27.30;;;17.23;;
32705;SDS011;19094;50.972;3.538;2023-11-22T02:46:21;34.95;;;18.20;;
32705;SDS011;19094;50.972;3.538;2023-11-22T02:48:47;36.38;;;18.00;;
32705;SDS011;19094;50.972;3.538;2023-11-22T02:51:12;31.77;;;17.55;;
32705;SDS011;19094;50.972;3.538;2023-11-22T02:53:39;29.13;;;18.00;;
32705;SDS011;19094;50.972;3.538;2023-11-22T02:56:08;28.15;;;17.80;;
32705;SDS011;19094;50.972;3.538;2023-11-22T02:58:35;29.38;;;17.15;;
32705;SDS011;19094;50.972;3.538;2023-11-22T03:01:01;32.15;;;17.80;;
32705;SDS011;19094;50.972;3.538;2023-11-22T03:03:27;29.65;;;17.48;;
32705;SDS011;19094;50.972;3.538;2023-11-22T03:05:53;34.13;;;17.85;;
32705;SDS011;19094;50.972;3.538;2023-11-22T03:08:19;27.40;;;17.95;;
32705;SDS011;19094;50.972;3.538;2023-11-22T03:10:45;31.25;;;18.65;;
32705;SDS011;19094;50.972;3.538;2023-11-22T03:13:11;32.10;;;19.40;;
32705;SDS011;19094;50.972;3.538;2023-11-22T03:15:37;33.10;;;18.63;;
32705;SDS011;19094;50.972;3.538;2023-11-22T03:18:03;32.78;;;17.60;;
32705;SDS011;19094;50.972;3.538;2023-11-22T03:20:31;35.20;;;18.25;;
32705;SDS011;19094;50.972;3.538;2023-11-22T03:22:57;28.48;;;18.25;;
32705;SDS011;19094;50.972;3.538;2023-11-22T03:25:23;29.77;;;17.20;;
32705;SDS011;19094;50.972;3.538;2023-11-22T03:27:49;31.77;;;18.88;;
32705;SDS011;19094;50.972;3.538;2023-11-22T03:30:15;38.60;;;18.95;;
32705;SDS011;19094;50.972;3.538;2023-11-22T03:32:41;33.90;;;19.25;;
32705;SDS011;19094;50.972;3.538;2023-11-22T03:35:07;34.83;;;18.52;;
32705;SDS011;19094;50.972;3.538;2023-11-22T03:37:33;35.83;;;18.35;;
32705;SDS011;19094;50.972;3.538;2023-11-22T03:39:59;33.67;;;18.10;;
32705;SDS011;19094;50.972;3.538;2023-11-22T03:42:25;31.70;;;18.70;;
32705;SDS011;19094;50.972;3.538;2023-11-22T03:44:52;26.95;;;17.73;;
32705;SDS011;19094;50.972;3.538;2023-11-22T03:47:18;38.60;;;18.20;;
32705;SDS011;19094;50.972;3.538;2023-11-22T03:49:44;33.97;;;18.38;;
32705;SDS011;19094;50.972;3.538;2023-11-22T03:52:10;36.65;;;18.65;;
32705;SDS011;19094;50.972;3.538;2023-11-22T03:54:36;31.92;;;18.40;;
32705;SDS011;19094;50.972;3.538;2023-11-22T03:57:02;31.52;;;18.10;;
32705;SDS011;19094;50.972;3.538;2023-11-22T03:59:29;36.55;;;18.20;;
32705;SDS011;19094;50.972;3.538;2023-11-22T04:01:55;35.67;;;19.67;;
32705;SDS011;19094;50.972;3.538;2023-11-22T04:04:22;33.13;;;18.23;;
32705;SDS011;19094;50.972;3.538;2023-11-22T04:06:48;29.38;;;17.90;;
32705;SDS011;19094;50.972;3.538;2023-11-22T04:09:15;34.25;;;18.02;;
32705;SDS011;19094;50.972;3.538;2023-11-22T04:11:45;33.35;;;18.02;;
32705;SDS011;19094;50.972;3.538;2023-11-22T04:14:11;33.63;;;18.77;;
32705;SDS011;19094;50.972;3.538;2023-11-22T04:16:37;34.75;;;19.02;;
32705;SDS011;19094;50.972;3.538;2023-11-22T04:19:03;34.60;;;18.55;;
32705;SDS011;19094;50.972;3.538;2023-11-22T04:21:28;30.13;;;18.23;;
32705;SDS011;19094;50.972;3.538;2023-11-22T04:23:54;33.65;;;18.33;;
32705;SDS011;19094;50.972;3.538;2023-11-22T04:26:20;31.55;;;17.75;;
32705;SDS011;19094;50.972;3.538;2023-11-22T04:28:45;32.60;;;17.75;;
32705;SDS011;19094;50.972;3.538;2023-11-22T04:31:11;31.85;;;18.13;;
32705;SDS011;19094;50.972;3.538;2023-11-22T04:33:37;32.50;;;18.73;;
32705;SDS011;19094;50.972;3.538;2023-11-22T04:36:03;31.20;;;17.20;;
32705;SDS011;19094;50.972;3.538;2023-11-22T04:38:30;30.85;;;18.63;;
32705;SDS011;19094;50.972;3.538;2023-11-22T04:40:55;32.50;;;17.27;;
32705;SDS011;19094;50.972;3.538;2023-11-22T04:43:21;24.85;;;15.73;;
32705;SDS011;19094;50.972;3.538;2023-11-22T04:45:48;28.98;;;15.43;;
32705;SDS011;19094;50.972;3.538;2023-11-22T04:48:15;24.65;;;15.32;;
32705;SDS011;19094;50.972;3.538;2023-11-22T04:50:41;26.70;;;15.35;;
32705;SDS011;19094;50.972;3.538;2023-11-22T04:53:10;28.65;;;16.00;;
32705;SDS011;19094;50.972;3.538;2023-11-22T04:55:36;25.77;;;16.38;;
32705;SDS011;19094;50.972;3.538;2023-11-22T04:58:02;29.80;;;16.88;;
32705;SDS011;19094;50.972;3.538;2023-11-22T05:00:28;26.98;;;16.77;;
32705;SDS011;19094;50.972;3.538;2023-11-22T05:02:54;31.17;;;17.33;;
32705;SDS011;19094;50.972;3.538;2023-11-22T05:05:19;36.97;;;18.58;;
32705;SDS011;19094;50.972;3.538;2023-11-22T05:07:46;28.35;;;16.92;;
32705;SDS011;19094;50.972;3.538;2023-11-22T05:10:12;33.17;;;17.70;;
32705;SDS011;19094;50.972;3.538;2023-11-22T05:12:38;31.92;;;18.40;;
32705;SDS011;19094;50.972;3.538;2023-11-22T05:15:04;29.52;;;16.92;;
32705;SDS011;19094;50.972;3.538;2023-11-22T05:17:30;28.58;;;16.27;;
32705;SDS011;19094;50.972;3.538;2023-11-22T05:19:56;31.55;;;17.90;;
32705;SDS011;19094;50.972;3.538;2023-11-22T05:22:21;30.75;;;17.50;;
32705;SDS011;19094;50.972;3.538;2023-11-22T05:24:48;30.95;;;17.50;;
32705;SDS011;19094;50.972;3.538;2023-11-22T05:27:14;30.92;;;18.17;;
32705;SDS011;19094;50.972;3.538;2023-11-22T05:29:40;32.65;;;18.20;;
32705;SDS011;19094;50.972;3.538;2023-11-22T05:32:06;36.67;;;18.63;;
32705;SDS011;19094;50.972;3.538;2023-11-22T05:34:32;34.28;;;18.40;;
32705;SDS011;19094;50.972;3.538;2023-11-22T05:36:58;36.78;;;19.35;;
32705;SDS011;19094;50.972;3.538;2023-11-22T05:39:24;31.30;;;18.10;;
32705;SDS011;19094;50.972;3.538;2023-11-22T05:41:53;28.55;;;17.73;;
32705;SDS011;19094;50.972;3.538;2023-11-22T05:44:19;37.65;;;19.85;;
32705;SDS011;19094;50.972;3.538;2023-11-22T05:46:45;34.65;;;21.23;;
32705;SDS011;19094;50.972;3.538;2023-11-22T05:49:11;47.92;;;23.70;;
32705;SDS011;19094;50.972;3.538;2023-11-22T05:51:36;34.47;;;19.80;;
32705;SDS011;19094;50.972;3.538;2023-11-22T05:54:02;41.85;;;19.38;;
32705;SDS011;19094;50.972;3.538;2023-11-22T05:56:29;37.70;;;18.92;;
32705;SDS011;19094;50.972;3.538;2023-11-22T05:58:55;45.83;;;23.33;;
32705;SDS011;19094;50.972;3.538;2023-11-22T06:01:21;40.33;;;22.85;;
32705;SDS011;19094;50.972;3.538;2023-11-22T06:03:47;34.65;;;19.00;;
32705;SDS011;19094;50.972;3.538;2023-11-22T06:06:13;41.28;;;20.42;;
32705;SDS011;19094;50.972;3.538;2023-11-22T06:08:39;36.38;;;19.67;;
32705;SDS011;19094;50.972;3.538;2023-11-22T06:11:05;32.53;;;18.75;;
32705;SDS011;19094;50.972;3.538;2023-11-22T06:13:32;43.83;;;26.85;;
32705;SDS011;19094;50.972;3.538;2023-11-22T06:15:57;41.25;;;24.95;;
32705;SDS011;19094;50.972;3.538;2023-11-22T06:18:23;48.10;;;27.10;;
32705;SDS011;19094;50.972;3.538;2023-11-22T06:20:54;70.18;;;33.55;;
32705;SDS011;19094;50.972;3.538;2023-11-22T06:23:23;52.15;;;30.08;;
32705;SDS011;19094;50.972;3.538;2023-11-22T06:25:49;50.40;;;27.23;;
32705;SDS011;19094;50.972;3.538;2023-11-22T06:28:14;42.67;;;24.50;;
32705;SDS011;19094;50.972;3.538;2023-11-22T06:30:40;42.13;;;22.95;;
32705;SDS011;19094;50.972;3.538;2023-11-22T06:33:07;40.25;;;22.90;;
32705;SDS011;19094;50.972;3.538;2023-11-22T06:35:32;38.03;;;22.50;;
32705;SDS011;19094;50.972;3.538;2023-11-22T06:37:58;41.38;;;22.05;;
32705;SDS011;19094;50.972;3.538;2023-11-22T06:40:24;38.72;;;19.70;;
32705;SDS011;19094;50.972;3.538;2023-11-22T06:42:50;42.05;;;21.05;;
32705;SDS011;19094;50.972;3.538;2023-11-22T06:45:16;39.25;;;21.15;;
32705;SDS011;19094;50.972;3.538;2023-11-22T06:47:42;37.50;;;19.83;;
32705;SDS011;19094;50.972;3.538;2023-11-22T06:50:08;41.70;;;20.60;;
32705;SDS011;19094;50.972;3.538;2023-11-22T06:52:35;34.97;;;19.15;;
32705;SDS011;19094;50.972;3.538;2023-11-22T06:55:03;39.63;;;20.42;;
32705;SDS011;19094;50.972;3.538;2023-11-22T06:57:29;40.05;;;21.40;;
32705;SDS011;19094;50.972;3.538;2023-11-22T06:59:56;42.38;;;21.45;;
32705;SDS011;19094;50.972;3.538;2023-11-22T07:02:21;43.35;;;23.52;;
32705;SDS011;19094;50.972;3.538;2023-11-22T07:04:47;43.33;;;21.73;;
32705;SDS011;19094;50.972;3.538;2023-11-22T07:07:13;40.10;;;21.88;;
32705;SDS011;19094;50.972;3.538;2023-11-22T07:09:43;40.67;;;21.13;;
32705;SDS011;19094;50.972;3.538;2023-11-22T07:12:09;35.67;;;20.90;;
32705;SDS011;19094;50.972;3.538;2023-11-22T07:14:35;41.45;;;20.98;;
32705;SDS011;19094;50.972;3.538;2023-11-22T07:17:01;36.35;;;21.45;;
32705;SDS011;19094;50.972;3.538;2023-11-22T07:19:27;37.85;;;20.88;;
32705;SDS011;19094;50.972;3.538;2023-11-22T07:21:53;40.75;;;22.63;;
32705;SDS011;19094;50.972;3.538;2023-11-22T07:24:19;44.90;;;23.25;;
32705;SDS011;19094;50.972;3.538;2023-11-22T07:26:44;38.58;;;21.33;;
32705;SDS011;19094;50.972;3.538;2023-11-22T07:29:10;41.97;;;23.25;;
32705;SDS011;19094;50.972;3.538;2023-11-22T07:31:37;43.92;;;24.20;;
32705;SDS011;19094;50.972;3.538;2023-11-22T07:34:04;49.30;;;24.45;;
32705;SDS011;19094;50.972;3.538;2023-11-22T07:36:31;49.22;;;26.17;;
32705;SDS011;19094;50.972;3.538;2023-11-22T07:38:57;54.42;;;27.30;;
32705;SDS011;19094;50.972;3.538;2023-11-22T07:41:22;45.97;;;25.05;;
32705;SDS011;19094;50.972;3.538;2023-11-22T07:43:48;57.10;;;26.65;;
32705;SDS011;19094;50.972;3.538;2023-11-22T07:46:14;51.22;;;26.20;;
32705;SDS011;19094;50.972;3.538;2023-11-22T07:48:42;58.38;;;28.73;;
32705;SDS011;19094;50.972;3.538;2023-11-22T07:51:08;52.05;;;26.05;;
32705;SDS011;19094;50.972;3.538;2023-11-22T07:53:34;47.70;;;25.83;;
32705;SDS011;19094;50.972;3.538;2023-11-22T07:56:03;52.45;;;28.17;;
32705;SDS011;19094;50.972;3.538;2023-11-22T07:58:34;66.00;;;29.93;;
32705;SDS011;19094;50.972;3.538;2023-11-22T08:00:59;54.47;;;27.50;;
32705;SDS011;19094;50.972;3.538;2023-11-22T08:03:30;47.03;;;25.55;;
32705;SDS011;19094;50.972;3.538;2023-11-22T08:05:56;48.05;;;25.33;;
32705;SDS011;19094;50.972;3.538;2023-11-22T08:08:22;55.22;;;26.77;;
32705;SDS011;19094;50.972;3.538;2023-11-22T08:10:48;53.88;;;26.75;;
32705;SDS011;19094;50.972;3.538;2023-11-22T08:13:16;48.92;;;26.42;;
32705;SDS011;19094;50.972;3.538;2023-11-22T08:15:44;42.17;;;24.92;;
32705;SDS011;19094;50.972;3.538;2023-11-22T08:18:12;48.03;;;25.40;;
32705;SDS011;19094;50.972;3.538;2023-11-22T08:20:38;44.25;;;24.02;;
32705;SDS011;19094;50.972;3.538;2023-11-22T08:23:04;51.42;;;24.38;;
32705;SDS011;19094;50.972;3.538;2023-11-22T08:25:31;45.15;;;24.23;;
32705;SDS011;19094;50.972;3.538;2023-11-22T08:27:57;45.78;;;23.52;;
32705;SDS011;19094;50.972;3.538;2023-11-22T08:30:23;48.15;;;23.85;;
32705;SDS011;19094;50.972;3.538;2023-11-22T08:32:49;43.15;;;23.85;;
32705;SDS011;19094;50.972;3.538;2023-11-22T08:35:19;41.10;;;22.48;;
32705;SDS011;19094;50.972;3.538;2023-11-22T08:37:48;44.20;;;22.27;;
32705;SDS011;19094;50.972;3.538;2023-11-22T08:40:15;43.30;;;22.63;;
32705;SDS011;19094;50.972;3.538;2023-11-22T08:42:45;42.65;;;22.95;;
32705;SDS011;19094;50.972;3.538;2023-11-22T08:45:11;43.25;;;22.63;;
32705;SDS011;19094;50.972;3.538;2023-11-22T08:47:37;39.60;;;22.88;;
32705;SDS011;19094;50.972;3.538;2023-11-22T08:50:05;48.53;;;23.20;;
32705;SDS011;19094;50.972;3.538;2023-11-22T08:52:39;43.40;;;23.38;;
32705;SDS011;19094;50.972;3.538;2023-11-22T08:55:07;51.03;;;23.02;;
32705;SDS011;19094;50.972;3.538;2023-11-22T08:57:35;36.75;;;23.45;;
32705;SDS011;19094;50.972;3.538;2023-11-22T09:00:02;41.22;;;22.90;;
32705;SDS011;19094;50.972;3.538;2023-11-22T09:02:33;48.00;;;22.23;;
32705;SDS011;19094;50.972;3.538;2023-11-22T09:04:59;44.28;;;23.83;;
32705;SDS011;19094;50.972;3.538;2023-11-22T09:07:25;42.60;;;24.40;;
32705;SDS011;19094;50.972;3.538;2023-11-22T09:09:51;41.13;;;25.77;;
32705;SDS011;19094;50.972;3.538;2023-11-22T09:12:19;45.35;;;27.13;;
32705;SDS011;19094;50.972;3.538;2023-11-22T09:14:45;54.78;;;28.83;;
32705;SDS011;19094;50.972;3.538;2023-11-22T09:17:11;55.75;;;27.98;;
32705;SDS011;19094;50.972;3.538;2023-11-22T09:19:38;48.67;;;26.30;;
32705;SDS011;19094;50.972;3.538;2023-11-22T09:22:04;52.13;;;28.88;;
32705;SDS011;19094;50.972;3.538;2023-11-22T09:24:33;41.40;;;25.58;;
32705;SDS011;19094;50.972;3.538;2023-11-22T09:27:02;45.75;;;25.15;;
32705;SDS011;19094;50.972;3.538;2023-11-22T09:29:30;41.70;;;24.13;;
32705;SDS011;19094;50.972;3.538;2023-11-22T09:31:58;50.85;;;26.23;;
32705;SDS011;19094;50.972;3.538;2023-11-22T09:34:25;47.28;;;25.92;;
32705;SDS011;19094;50.972;3.538;2023-11-22T09:36:51;47.00;;;25.60;;
32705;SDS011;19094;50.972;3.538;2023-11-22T09:39:17;44.88;;;27.38;;
32705;SDS011;19094;50.972;3.538;2023-11-22T09:41:46;47.10;;;27.30;;
32705;SDS011;19094;50.972;3.538;2023-11-22T09:44:13;52.22;;;28.25;;
32705;SDS011;19094;50.972;3.538;2023-11-22T09:46:41;49.47;;;27.00;;
32705;SDS011;19094;50.972;3.538;2023-11-22T09:49:07;53.60;;;28.25;;
32705;SDS011;19094;50.972;3.538;2023-11-22T09:51:40;56.28;;;28.00;;
32705;SDS011;19094;50.972;3.538;2023-11-22T09:54:07;51.83;;;27.77;;
32705;SDS011;19094;50.972;3.538;2023-11-22T09:56:37;45.10;;;27.75;;
32705;SDS011;19094;50.972;3.538;2023-11-22T09:59:03;53.60;;;27.65;;
32705;SDS011;19094;50.972;3.538;2023-11-22T10:01:29;51.05;;;28.80;;
32705;SDS011;19094;50.972;3.538;2023-11-22T10:04:01;49.55;;;27.65;;
32705;SDS011;19094;50.972;3.538;2023-11-22T10:06:27;54.80;;;27.88;;
32705;SDS011;19094;50.972;3.538;2023-11-22T10:08:59;57.33;;;27.80;;
32705;SDS011;19094;50.972;3.538;2023-11-22T10:11:36;52.70;;;28.95;;
32705;SDS011;19094;50.972;3.538;2023-11-22T10:14:04;52.80;;;28.35;;
32705;SDS011;19094;50.972;3.538;2023-11-22T10:16:30;50.10;;;27.85;;
32705;SDS011;19094;50.972;3.538;2023-11-22T10:18:55;56.90;;;28.90;;
32705;SDS011;19094;50.972;3.538;2023-11-22T10:21:27;56.55;;;31.88;;
32705;SDS011;19094;50.972;3.538;2023-11-22T10:23:56;52.70;;;30.45;;
32705;SDS011;19094;50.972;3.538;2023-11-22T10:26:25;53.80;;;29.77;;
32705;SDS011;19094;50.972;3.538;2023-11-22T10:28:53;51.35;;;28.98;;
32705;SDS011;19094;50.972;3.538;2023-11-22T10:31:20;59.40;;;29.13;;
32705;SDS011;19094;50.972;3.538;2023-11-22T10:33:47;56.50;;;29.63;;
32705;SDS011;19094;50.972;3.538;2023-11-22T10:36:13;60.65;;;29.83;;
32705;SDS011;19094;50.972;3.538;2023-11-22T10:38:40;55.97;;;30.08;;
32705;SDS011;19094;50.972;3.538;2023-11-22T10:41:07;62.60;;;31.38;;
32705;SDS011;19094;50.972;3.538;2023-11-22T10:43:37;61.33;;;31.10;;
32705;SDS011;19094;50.972;3.538;2023-11-22T10:46:04;65.25;;;32.63;;
32705;SDS011;19094;50.972;3.538;2023-11-22T10:48:31;51.13;;;32.63;;
32705;SDS011;19094;50.972;3.538;2023-11-22T10:51:01;56.15;;;31.88;;
32705;SDS011;19094;50.972;3.538;2023-11-22T10:53:32;57.13;;;31.15;;
32705;SDS011;19094;50.972;3.538;2023-11-22T10:56:03;57.47;;;30.75;;
32705;SDS011;19094;50.972;3.538;2023-11-22T10:58:49;62.25;;;33.50;;
32705;SDS011;19094;50.972;3.538;2023-11-22T11:01:16;52.58;;;29.92;;
32705;SDS011;19094;50.972;3.538;2023-11-22T11:03:45;51.83;;;29.60;;
32705;SDS011;19094;50.972;3.538;2023-11-22T11:06:22;47.55;;;27.13;;
32705;SDS011;19094;50.972;3.538;2023-11-22T11:08:53;49.55;;;27.75;;
32705;SDS011;19094;50.972;3.538;2023-11-22T11:11:21;53.67;;;28.23;;
32705;SDS011;19094;50.972;3.538;2023-11-22T11:13:49;41.92;;;25.50;;
32705;SDS011;19094;50.972;3.538;2023-11-22T11:16:15;45.38;;;26.35;;
32705;SDS011;19094;50.972;3.538;2023-11-22T11:18:42;53.63;;;28.23;;
32705;SDS011;19094;50.972;3.538;2023-11-22T11:21:08;49.70;;;27.73;;
32705;SDS011;19094;50.972;3.538;2023-11-22T11:23:41;51.55;;;27.67;;
32705;SDS011;19094;50.972;3.538;2023-11-22T11:26:16;41.83;;;25.95;;
32705;SDS011;19094;50.972;3.538;2023-11-22T11:28:47;46.22;;;29.08;;
32705;SDS011;19094;50.972;3.538;2023-11-22T11:31:14;50.15;;;28.45;;
32705;SDS011;19094;50.972;3.538;2023-11-22T11:36:15;53.13;;;28.05;;
32705;SDS011;19094;50.972;3.538;2023-11-22T11:38:49;46.95;;;27.45;;
32705;SDS011;19094;50.972;3.538;2023-11-22T11:41:16;43.35;;;25.70;;
32705;SDS011;19094;50.972;3.538;2023-11-22T11:43:48;51.83;;;25.65;;
32705;SDS011;19094;50.972;3.538;2023-11-22T11:46:15;41.00;;;24.35;;
32705;SDS011;19094;50.972;3.538;2023-11-22T11:48:42;33.30;;;19.30;;
32705;SDS011;19094;50.972;3.538;2023-11-22T11:51:13;42.50;;;24.77;;
32705;SDS011;19094;50.972;3.538;2023-11-22T11:53:40;42.33;;;24.38;;
32705;SDS011;19094;50.972;3.538;2023-11-22T11:56:06;43.60;;;25.45;;
32705;SDS011;19094;50.972;3.538;2023-11-22T11:58:32;40.83;;;25.27;;
32705;SDS011;19094;50.972;3.538;2023-11-22T12:00:59;57.80;;;27.15;;
32705;SDS011;19094;50.972;3.538;2023-11-22T12:03:24;47.33;;;26.83;;
32705;SDS011;19094;50.972;3.538;2023-11-22T12:05:50;51.83;;;27.90;;
32705;SDS011;19094;50.972;3.538;2023-11-22T12:08:16;49.67;;;27.42;;
32705;SDS011;19094;50.972;3.538;2023-11-22T12:10:44;53.38;;;26.30;;
32705;SDS011;19094;50.972;3.538;2023-11-22T12:13:16;52.35;;;28.10;;
32705;SDS011;19094;50.972;3.538;2023-11-22T12:15:50;48.03;;;26.98;;
32705;SDS011;19094;50.972;3.538;2023-11-22T12:18:19;47.65;;;27.60;;
32705;SDS011;19094;50.972;3.538;2023-11-22T12:20:55;48.95;;;26.65;;
32705;SDS011;19094;50.972;3.538;2023-11-22T12:23:22;40.20;;;25.23;;
32705;SDS011;19094;50.972;3.538;2023-11-22T12:25:53;49.35;;;26.83;;
32705;SDS011;19094;50.972;3.538;2023-11-22T12:28:22;49.08;;;28.73;;
32705;SDS011;19094;50.972;3.538;2023-11-22T12:30:49;51.30;;;28.85;;
32705;SDS011;19094;50.972;3.538;2023-11-22T12:33:16;55.75;;;29.83;;
32705;SDS011;19094;50.972;3.538;2023-11-22T12:35:43;53.83;;;28.05;;
32705;SDS011;19094;50.972;3.538;2023-11-22T12:38:09;54.10;;;29.08;;
32705;SDS011;19094;50.972;3.538;2023-11-22T12:40:35;56.90;;;31.33;;
32705;SDS011;19094;50.972;3.538;2023-11-22T12:43:02;52.28;;;30.10;;
32705;SDS011;19094;50.972;3.538;2023-11-22T12:45:33;54.60;;;30.65;;
32705;SDS011;19094;50.972;3.538;2023-11-22T12:48:25;57.13;;;28.45;;
32705;SDS011;19094;50.972;3.538;2023-11-22T12:50:51;49.92;;;28.88;;
32705;SDS011;19094;50.972;3.538;2023-11-22T12:53:17;57.20;;;31.60;;
32705;SDS011;19094;50.972;3.538;2023-11-22T12:55:49;54.53;;;28.88;;
32705;SDS011;19094;50.972;3.538;2023-11-22T12:58:21;59.15;;;31.30;;
32705;SDS011;19094;50.972;3.538;2023-11-22T13:00:50;52.22;;;31.58;;
32705;SDS011;19094;50.972;3.538;2023-11-22T13:03:23;58.50;;;32.43;;
32705;SDS011;19094;50.972;3.538;2023-11-22T13:05:50;60.22;;;32.92;;
32705;SDS011;19094;50.972;3.538;2023-11-22T13:08:19;61.70;;;32.35;;
32705;SDS011;19094;50.972;3.538;2023-11-22T13:10:48;58.92;;;32.38;;
32705;SDS011;19094;50.972;3.538;2023-11-22T13:13:25;54.25;;;31.95;;
32705;SDS011;19094;50.972;3.538;2023-11-22T13:15:52;57.75;;;31.30;;
32705;SDS011;19094;50.972;3.538;2023-11-22T13:18:19;61.78;;;31.65;;
32705;SDS011;19094;50.972;3.538;2023-11-22T13:20:45;55.10;;;32.30;;
32705;SDS011;19094;50.972;3.538;2023-11-22T13:23:11;59.85;;;31.80;;
32705;SDS011;19094;50.972;3.538;2023-11-22T13:25:38;59.60;;;31.88;;
32705;SDS011;19094;50.972;3.538;2023-11-22T13:28:06;54.42;;;30.30;;
32705;SDS011;19094;50.972;3.538;2023-11-22T13:30:32;59.13;;;30.92;;
32705;SDS011;19094;50.972;3.538;2023-11-22T13:32:58;57.30;;;30.98;;
32705;SDS011;19094;50.972;3.538;2023-11-22T13:35:24;56.22;;;31.60;;
32705;SDS011;19094;50.972;3.538;2023-11-22T13:37:52;57.15;;;30.98;;
32705;SDS011;19094;50.972;3.538;2023-11-22T13:40:19;62.05;;;32.08;;
32705;SDS011;19094;50.972;3.538;2023-11-22T13:42:50;56.42;;;30.60;;
32705;SDS011;19094;50.972;3.538;2023-11-22T13:45:18;60.53;;;32.38;;
32705;SDS011;19094;50.972;3.538;2023-11-22T13:47:45;61.20;;;32.80;;
32705;SDS011;19094;50.972;3.538;2023-11-22T13:50:18;56.05;;;31.17;;
32705;SDS011;19094;50.972;3.538;2023-11-22T13:52:49;57.85;;;31.65;;
32705;SDS011;19094;50.972;3.538;2023-11-22T13:55:17;56.67;;;31.83;;
32705;SDS011;19094;50.972;3.538;2023-11-22T13:57:48;63.90;;;33.03;;
32705;SDS011;19094;50.972;3.538;2023-11-22T14:00:14;60.85;;;33.03;;
32705;SDS011;19094;50.972;3.538;2023-11-22T14:02:52;58.85;;;30.95;;
32705;SDS011;19094;50.972;3.538;2023-11-22T14:05:22;63.90;;;32.90;;
32705;SDS011;19094;50.972;3.538;2023-11-22T14:07:52;59.25;;;31.55;;
32705;SDS011;19094;50.972;3.538;2023-11-22T14:10:18;64.13;;;32.70;;
32705;SDS011;19094;50.972;3.538;2023-11-22T14:12:44;62.38;;;34.20;;
32705;SDS011;19094;50.972;3.538;2023-11-22T14:15:11;63.63;;;33.10;;
32705;SDS011;19094;50.972;3.538;2023-11-22T14:17:37;62.33;;;31.23;;
32705;SDS011;19094;50.972;3.538;2023-11-22T14:20:06;68.28;;;32.47;;
32705;SDS011;19094;50.972;3.538;2023-11-22T14:22:34;66.35;;;33.60;;